sensor_id;sensor_type;location;lat;lon;timestamp;temperature;humidity
37938;DHT22;23763;48.130;11.602;2022-09-03T00:05:05;15.30;99.90
37938;DHT22;23763;48.130;11.602;2022-09-03T00:13:01;15.30;99.90
37938;DHT22;23763;48.130;11.602;2022-09-03T00:15:31;15.30;99.90
37938;DHT22;23763;48.130;11.602;2022-09-03T00:23:05;15.40;99.90
37938;DHT22;23763;48.130;11.602;2022-09-03T00:28:36;15.30;99.90
37938;DHT22;23763;48.130;11.602;2022-09-03T00:31:14;15.30;99.90
37938;DHT22;23763;48.130;11.602;2022-09-03T00:33:44;15.40;99.90
37938;DHT22;23763;48.130;11.602;2022-09-03T00:36:18;15.30;99.90
37938;DHT22;23763;48.130;11.602;2022-09-03T00:38:45;15.20;99.90
37938;DHT22;23763;48.130;11.602;2022-09-03T00:46:34;15.10;99.90
37938;DHT22;23763;48.130;11.602;2022-09-03T00:51:41;15.00;99.90
37938;DHT22;23763;48.130;11.602;2022-09-03T00:55:19;15.00;99.90
37938;DHT22;23763;48.130;11.602;2022-09-03T00:57:41;14.90;99.90
37938;DHT22;23763;48.130;11.602;2022-09-03T01:00:17;14.90;99.90
37938;DHT22;23763;48.130;11.602;2022-09-03T01:17:05;14.60;99.90
37938;DHT22;23763;48.130;11.602;2022-09-03T01:23:33;14.60;99.90
37938;DHT22;23763;48.130;11.602;2022-09-03T01:25:34;14.60;99.90
37938;DHT22;23763;48.130;11.602;2022-09-03T01:30:42;14.60;99.90
37938;DHT22;23763;48.130;11.602;2022-09-03T01:35:47;14.50;99.90
37938;DHT22;23763;48.130;11.602;2022-09-03T01:46:22;14.20;99.90
37938;DHT22;23763;48.130;11.602;2022-09-03T01:48:52;14.20;99.90
37938;DHT22;23763;48.130;11.602;2022-09-03T01:51:22;14.20;99.90
37938;DHT22;23763;48.130;11.602;2022-09-03T01:57:23;14.20;99.90
37938;DHT22;23763;48.130;11.602;2022-09-03T02:02:32;14.20;99.90
37938;DHT22;23763;48.130;11.602;2022-09-03T02:05:07;14.20;99.90
37938;DHT22;23763;48.130;11.602;2022-09-03T02:07:47;14.20;99.90
37938;DHT22;23763;48.130;11.602;2022-09-03T02:10:16;14.20;99.90
37938;DHT22;23763;48.130;11.602;2022-09-03T02:12:50;14.20;99.90
37938;DHT22;23763;48.130;11.602;2022-09-03T02:15:19;14.30;99.90
37938;DHT22;23763;48.130;11.602;2022-09-03T02:17:47;14.20;99.90
37938;DHT22;23763;48.130;11.602;2022-09-03T02:20:19;14.20;99.90
37938;DHT22;23763;48.130;11.602;2022-09-03T02:22:47;14.20;99.90
37938;DHT22;23763;48.130;11.602;2022-09-03T02:25:15;14.10;99.90
37938;DHT22;23763;48.130;11.602;2022-09-03T02:27:42;14.10;99.90
37938;DHT22;23763;48.130;11.602;2022-09-03T02:30:09;14.10;99.90
37938;DHT22;23763;48.130;11.602;2022-09-03T02:32:34;14.10;99.90
37938;DHT22;23763;48.130;11.602;2022-09-03T02:35:00;14.00;99.90
37938;DHT22;23763;48.130;11.602;2022-09-03T02:37:26;13.90;99.90
37938;DHT22;23763;48.130;11.602;2022-09-03T02:39:52;14.00;99.90
37938;DHT22;23763;48.130;11.602;2022-09-03T02:42:18;14.00;99.90
37938;DHT22;23763;48.130;11.602;2022-09-03T02:44:48;14.00;99.90
37938;DHT22;23763;48.130;11.602;2022-09-03T02:47:14;14.00;99.90
37938;DHT22;23763;48.130;11.602;2022-09-03T02:49:40;14.00;99.90
37938;DHT22;23763;48.130;11.602;2022-09-03T02:52:08;14.00;99.90
37938;DHT22;23763;48.130;11.602;2022-09-03T02:54:37;14.00;99.90
37938;DHT22;23763;48.130;11.602;2022-09-03T02:57:12;14.00;99.90
37938;DHT22;23763;48.130;11.602;2022-09-03T02:59:39;13.90;99.90
37938;DHT22;23763;48.130;11.602;2022-09-03T03:02:06;13.90;99.90
37938;DHT22;23763;48.130;11.602;2022-09-03T03:04:32;13.90;99.90
37938;DHT22;23763;48.130;11.602;2022-09-03T03:06:58;13.90;99.90
37938;DHT22;23763;48.130;11.602;2022-09-03T03:09:24;13.80;99.90
37938;DHT22;23763;48.130;11.602;2022-09-03T03:11:50;13.80;99.90
37938;DHT22;23763;48.130;11.602;2022-09-03T03:14:17;13.80;99.90
37938;DHT22;23763;48.130;11.602;2022-09-03T03:16:43;13.80;99.90
37938;DHT22;23763;48.130;11.602;2022-09-03T03:19:09;13.80;99.90
37938;DHT22;23763;48.130;11.602;2022-09-03T03:21:35;13.80;99.90
37938;DHT22;23763;48.130;11.602;2022-09-03T03:24:02;13.80;99.90
37938;DHT22;23763;48.130;11.602;2022-09-03T03:26:28;13.70;99.90
37938;DHT22;23763;48.130;11.602;2022-09-03T03:28:58;13.70;99.90
37938;DHT22;23763;48.130;11.602;2022-09-03T03:31:25;13.60;99.90
37938;DHT22;23763;48.130;11.602;2022-09-03T03:33:56;13.70;99.90
37938;DHT22;23763;48.130;11.602;2022-09-03T03:36:24;13.60;99.90
37938;DHT22;23763;48.130;11.602;2022-09-03T03:38:53;13.60;99.90
37938;DHT22;23763;48.130;11.602;2022-09-03T03:41:21;13.60;99.90
37938;DHT22;23763;48.130;11.602;2022-09-03T03:43:51;13.60;99.90
37938;DHT22;23763;48.130;11.602;2022-09-03T03:46:17;13.60;99.90
37938;DHT22;23763;48.130;11.602;2022-09-03T03:48:42;13.70;99.90
37938;DHT22;23763;48.130;11.602;2022-09-03T03:51:09;13.70;99.90
37938;DHT22;23763;48.130;11.602;2022-09-03T03:53:38;13.70;99.90
37938;DHT22;23763;48.130;11.602;2022-09-03T03:56:06;13.60;99.90
37938;DHT22;23763;48.130;11.602;2022-09-03T03:58:34;13.50;99.90
37938;DHT22;23763;48.130;11.602;2022-09-03T04:03:30;13.40;99.90
37938;DHT22;23763;48.130;11.602;2022-09-03T04:05:56;13.40;99.90
37938;DHT22;23763;48.130;11.602;2022-09-03T04:08:23;13.40;99.90
37938;DHT22;23763;48.130;11.602;2022-09-03T04:10:49;13.30;99.90
37938;DHT22;23763;48.130;11.602;2022-09-03T04:13:14;13.30;99.90
37938;DHT22;23763;48.130;11.602;2022-09-03T04:15:40;13.20;99.90
37938;DHT22;23763;48.130;11.602;2022-09-03T04:18:07;13.20;99.90
37938;DHT22;23763;48.130;11.602;2022-09-03T04:20:34;13.20;99.90
37938;DHT22;23763;48.130;11.602;2022-09-03T04:23:01;13.20;99.90
37938;DHT22;23763;48.130;11.602;2022-09-03T04:25:27;13.20;99.90
37938;DHT22;23763;48.130;11.602;2022-09-03T04:27:52;13.20;99.90
37938;DHT22;23763;48.130;11.602;2022-09-03T04:30:18;13.20;99.90
37938;DHT22;23763;48.130;11.602;2022-09-03T04:32:44;13.20;99.90
37938;DHT22;23763;48.130;11.602;2022-09-03T04:35:23;13.20;99.90
37938;DHT22;23763;48.130;11.602;2022-09-03T04:37:50;13.40;99.90
37938;DHT22;23763;48.130;11.602;2022-09-03T04:40:16;13.50;99.90
37938;DHT22;23763;48.130;11.602;2022-09-03T04:42:42;13.60;99.90
37938;DHT22;23763;48.130;11.602;2022-09-03T04:45:09;13.70;99.90
37938;DHT22;23763;48.130;11.602;2022-09-03T04:47:36;13.70;99.90
37938;DHT22;23763;48.130;11.602;2022-09-03T04:50:03;13.90;99.90
37938;DHT22;23763;48.130;11.602;2022-09-03T04:52:29;13.90;99.90
37938;DHT22;23763;48.130;11.602;2022-09-03T04:54:56;13.90;99.90
37938;DHT22;23763;48.130;11.602;2022-09-03T04:57:22;13.90;99.90
37938;DHT22;23763;48.130;11.602;2022-09-03T04:59:48;13.90;99.90
37938;DHT22;23763;48.130;11.602;2022-09-03T05:02:13;13.90;99.90
37938;DHT22;23763;48.130;11.602;2022-09-03T05:04:43;14.10;99.90
37938;DHT22;23763;48.130;11.602;2022-09-03T05:07:08;14.20;99.90
37938;DHT22;23763;48.130;11.602;2022-09-03T05:09:34;14.30;99.90
37938;DHT22;23763;48.130;11.602;2022-09-03T05:12:00;14.40;99.90
37938;DHT22;23763;48.130;11.602;2022-09-03T05:14:25;14.50;99.90
37938;DHT22;23763;48.130;11.602;2022-09-03T05:16:52;14.60;99.90
37938;DHT22;23763;48.130;11.602;2022-09-03T05:19:17;14.80;99.90
37938;DHT22;23763;48.130;11.602;2022-09-03T05:21:43;15.10;99.90
37938;DHT22;23763;48.130;11.602;2022-09-03T05:24:09;15.30;99.90
37938;DHT22;23763;48.130;11.602;2022-09-03T05:26:38;15.30;99.90
37938;DHT22;23763;48.130;11.602;2022-09-03T05:29:05;15.40;99.90
37938;DHT22;23763;48.130;11.602;2022-09-03T05:31:36;15.60;99.90
37938;DHT22;23763;48.130;11.602;2022-09-03T05:34:04;15.60;99.90
37938;DHT22;23763;48.130;11.602;2022-09-03T05:36:35;15.80;99.90
37938;DHT22;23763;48.130;11.602;2022-09-03T05:39:03;16.00;99.90
37938;DHT22;23763;48.130;11.602;2022-09-03T05:41:29;16.00;99.90
37938;DHT22;23763;48.130;11.602;2022-09-03T05:43:57;16.00;99.90
37938;DHT22;23763;48.130;11.602;2022-09-03T05:46:32;16.00;99.90
37938;DHT22;23763;48.130;11.602;2022-09-03T05:48:59;15.90;99.90
37938;DHT22;23763;48.130;11.602;2022-09-03T05:51:26;16.10;99.90
37938;DHT22;23763;48.130;11.602;2022-09-03T05:53:52;16.00;99.90
37938;DHT22;23763;48.130;11.602;2022-09-03T05:56:22;15.90;99.90
37938;DHT22;23763;48.130;11.602;2022-09-03T05:58:53;15.90;99.90
37938;DHT22;23763;48.130;11.602;2022-09-03T06:01:21;16.10;99.90
37938;DHT22;23763;48.130;11.602;2022-09-03T06:03:59;16.30;99.90
37938;DHT22;23763;48.130;11.602;2022-09-03T06:06:26;16.50;99.90
37938;DHT22;23763;48.130;11.602;2022-09-03T06:09:00;16.70;99.90
37938;DHT22;23763;48.130;11.602;2022-09-03T06:11:27;16.90;99.90
37938;DHT22;23763;48.130;11.602;2022-09-03T06:13:58;17.10;99.90
37938;DHT22;23763;48.130;11.602;2022-09-03T06:16:26;17.20;99.90
37938;DHT22;23763;48.130;11.602;2022-09-03T06:18:52;17.10;99.90
37938;DHT22;23763;48.130;11.602;2022-09-03T06:21:20;17.10;99.90
37938;DHT22;23763;48.130;11.602;2022-09-03T06:23:50;17.20;99.90
37938;DHT22;23763;48.130;11.602;2022-09-03T06:26:16;17.40;99.90
37938;DHT22;23763;48.130;11.602;2022-09-03T06:28:44;17.60;99.90
37938;DHT22;23763;48.130;11.602;2022-09-03T06:31:12;17.80;99.90
37938;DHT22;23763;48.130;11.602;2022-09-03T06:33:39;17.80;99.90
37938;DHT22;23763;48.130;11.602;2022-09-03T06:36:08;17.80;99.90
37938;DHT22;23763;48.130;11.602;2022-09-03T06:38:35;17.70;99.90
37938;DHT22;23763;48.130;11.602;2022-09-03T06:41:04;17.50;99.90
37938;DHT22;23763;48.130;11.602;2022-09-03T06:43:33;17.40;99.90
37938;DHT22;23763;48.130;11.602;2022-09-03T06:46:04;17.30;99.90
37938;DHT22;23763;48.130;11.602;2022-09-03T06:48:32;17.20;99.90
37938;DHT22;23763;48.130;11.602;2022-09-03T06:51:01;17.10;99.90
37938;DHT22;23763;48.130;11.602;2022-09-03T06:53:33;17.20;99.90
37938;DHT22;23763;48.130;11.602;2022-09-03T06:56:01;17.10;99.90
37938;DHT22;23763;48.130;11.602;2022-09-03T06:58:29;17.20;99.90
37938;DHT22;23763;48.130;11.602;2022-09-03T07:01:08;17.10;99.90
37938;DHT22;23763;48.130;11.602;2022-09-03T07:03:35;17.20;99.90
37938;DHT22;23763;48.130;11.602;2022-09-03T07:06:15;17.20;99.90
37938;DHT22;23763;48.130;11.602;2022-09-03T07:08:42;17.10;99.90
37938;DHT22;23763;48.130;11.602;2022-09-03T07:11:11;17.10;99.90
37938;DHT22;23763;48.130;11.602;2022-09-03T07:13:39;17.00;99.90
37938;DHT22;23763;48.130;11.602;2022-09-03T07:16:13;16.90;99.90
37938;DHT22;23763;48.130;11.602;2022-09-03T07:18:40;16.90;99.90
37938;DHT22;23763;48.130;11.602;2022-09-03T07:21:13;16.90;99.90
37938;DHT22;23763;48.130;11.602;2022-09-03T07:23:39;16.80;99.90
37938;DHT22;23763;48.130;11.602;2022-09-03T07:26:11;16.90;99.90
37938;DHT22;23763;48.130;11.602;2022-09-03T07:28:42;16.80;99.90
37938;DHT22;23763;48.130;11.602;2022-09-03T07:31:22;16.70;99.90
37938;DHT22;23763;48.130;11.602;2022-09-03T07:33:58;16.70;99.90
37938;DHT22;23763;48.130;11.602;2022-09-03T07:36:27;16.70;99.90
37938;DHT22;23763;48.130;11.602;2022-09-03T07:38:57;16.70;99.90
37938;DHT22;23763;48.130;11.602;2022-09-03T07:41:24;16.80;99.90
37938;DHT22;23763;48.130;11.602;2022-09-03T07:43:51;16.70;99.90
37938;DHT22;23763;48.130;11.602;2022-09-03T07:46:22;16.60;99.90
37938;DHT22;23763;48.130;11.602;2022-09-03T07:48:55;16.70;99.90
37938;DHT22;23763;48.130;11.602;2022-09-03T07:51:24;16.70;99.90
37938;DHT22;23763;48.130;11.602;2022-09-03T07:53:52;16.50;99.90
37938;DHT22;23763;48.130;11.602;2022-09-03T07:56:18;16.40;99.90
37938;DHT22;23763;48.130;11.602;2022-09-03T07:58:43;16.30;99.90
37938;DHT22;23763;48.130;11.602;2022-09-03T08:01:12;16.30;99.90
37938;DHT22;23763;48.130;11.602;2022-09-03T08:03:41;16.40;99.90
37938;DHT22;23763;48.130;11.602;2022-09-03T08:06:08;16.40;99.90
37938;DHT22;23763;48.130;11.602;2022-09-03T08:08:35;16.30;99.90
37938;DHT22;23763;48.130;11.602;2022-09-03T08:11:09;16.30;99.90
37938;DHT22;23763;48.130;11.602;2022-09-03T08:13:41;16.40;99.90
37938;DHT22;23763;48.130;11.602;2022-09-03T08:16:10;16.50;99.90
37938;DHT22;23763;48.130;11.602;2022-09-03T08:18:36;16.50;99.90
37938;DHT22;23763;48.130;11.602;2022-09-03T08:21:13;16.50;99.90
37938;DHT22;23763;48.130;11.602;2022-09-03T08:23:42;16.70;99.90
37938;DHT22;23763;48.130;11.602;2022-09-03T08:26:08;16.90;99.90
37938;DHT22;23763;48.130;11.602;2022-09-03T08:28:35;17.10;99.90
37938;DHT22;23763;48.130;11.602;2022-09-03T08:33:31;17.80;99.90
37938;DHT22;23763;48.130;11.602;2022-09-03T08:36:08;18.60;99.90
37938;DHT22;23763;48.130;11.602;2022-09-03T08:38:35;18.40;99.90
37938;DHT22;23763;48.130;11.602;2022-09-03T08:41:26;19.00;99.90
37938;DHT22;23763;48.130;11.602;2022-09-03T08:44:05;19.20;99.90
37938;DHT22;23763;48.130;11.602;2022-09-03T08:46:49;19.50;99.90
37938;DHT22;23763;48.130;11.602;2022-09-03T08:49:25;19.80;99.90
37938;DHT22;23763;48.130;11.602;2022-09-03T08:51:54;19.90;99.90
37938;DHT22;23763;48.130;11.602;2022-09-03T08:54:24;20.20;99.90
37938;DHT22;23763;48.130;11.602;2022-09-03T08:56:52;20.00;99.90
37938;DHT22;23763;48.130;11.602;2022-09-03T08:59:18;20.30;99.90
37938;DHT22;23763;48.130;11.602;2022-09-03T09:05:04;21.10;99.90
37938;DHT22;23763;48.130;11.602;2022-09-03T09:07:58;21.20;99.90
37938;DHT22;23763;48.130;11.602;2022-09-03T09:10:43;21.60;99.90
37938;DHT22;23763;48.130;11.602;2022-09-03T09:13:27;21.70;99.90
37938;DHT22;23763;48.130;11.602;2022-09-03T09:18:39;21.60;99.90
37938;DHT22;23763;48.130;11.602;2022-09-03T09:21:14;21.30;99.90
37938;DHT22;23763;48.130;11.602;2022-09-03T09:23:46;21.30;99.90
37938;DHT22;23763;48.130;11.602;2022-09-03T09:26:15;21.30;99.90
37938;DHT22;23763;48.130;11.602;2022-09-03T09:28:44;21.50;99.90
37938;DHT22;23763;48.130;11.602;2022-09-03T09:31:14;21.90;99.90
37938;DHT22;23763;48.130;11.602;2022-09-03T09:33:43;22.10;99.90
37938;DHT22;23763;48.130;11.602;2022-09-03T09:36:10;22.00;99.90
37938;DHT22;23763;48.130;11.602;2022-09-03T09:38:38;22.20;99.90
37938;DHT22;23763;48.130;11.602;2022-09-03T09:41:18;22.30;99.90
37938;DHT22;23763;48.130;11.602;2022-09-03T09:43:46;22.50;99.90
37938;DHT22;23763;48.130;11.602;2022-09-03T09:46:20;22.50;99.90
37938;DHT22;23763;48.130;11.602;2022-09-03T09:48:57;22.80;99.90
37938;DHT22;23763;48.130;11.602;2022-09-03T09:51:28;22.80;99.90
37938;DHT22;23763;48.130;11.602;2022-09-03T09:54:13;23.10;99.90
37938;DHT22;23763;48.130;11.602;2022-09-03T09:56:45;23.10;99.90
37938;DHT22;23763;48.130;11.602;2022-09-03T09:59:13;23.20;99.90
37938;DHT22;23763;48.130;11.602;2022-09-03T10:01:43;23.30;99.90
37938;DHT22;23763;48.130;11.602;2022-09-03T10:04:21;22.90;99.90
37938;DHT22;23763;48.130;11.602;2022-09-03T10:06:56;22.70;99.90
37938;DHT22;23763;48.130;11.602;2022-09-03T10:09:28;23.00;99.90
37938;DHT22;23763;48.130;11.602;2022-09-03T10:14:38;23.20;99.90
37938;DHT22;23763;48.130;11.602;2022-09-03T10:17:20;23.10;99.90
37938;DHT22;23763;48.130;11.602;2022-09-03T10:20:10;23.10;99.90
37938;DHT22;23763;48.130;11.602;2022-09-03T10:28:26;23.00;99.90
37938;DHT22;23763;48.130;11.602;2022-09-03T10:34:08;23.10;99.90
37938;DHT22;23763;48.130;11.602;2022-09-03T10:36:58;23.20;99.90
37938;DHT22;23763;48.130;11.602;2022-09-03T10:56:31;23.70;99.90
37938;DHT22;23763;48.130;11.602;2022-09-03T11:05:11;24.50;99.90
37938;DHT22;23763;48.130;11.602;2022-09-03T11:07:47;24.30;99.90
37938;DHT22;23763;48.130;11.602;2022-09-03T11:15:59;24.10;99.90
37938;DHT22;23763;48.130;11.602;2022-09-03T11:21:02;23.90;99.90
37938;DHT22;23763;48.130;11.602;2022-09-03T11:23:33;23.90;99.90
37938;DHT22;23763;48.130;11.602;2022-09-03T11:26:06;23.80;99.70
37938;DHT22;23763;48.130;11.602;2022-09-03T11:32:00;24.10;99.60
37938;DHT22;23763;48.130;11.602;2022-09-03T11:34:27;24.40;99.50
37938;DHT22;23763;48.130;11.602;2022-09-03T11:37:16;24.60;98.80
37938;DHT22;23763;48.130;11.602;2022-09-03T11:39:43;24.80;98.60
37938;DHT22;23763;48.130;11.602;2022-09-03T11:42:26;24.80;98.50
37938;DHT22;23763;48.130;11.602;2022-09-03T11:44:52;24.80;98.30
37938;DHT22;23763;48.130;11.602;2022-09-03T11:47:40;24.50;98.50
37938;DHT22;23763;48.130;11.602;2022-09-03T11:53:05;24.50;98.20
37938;DHT22;23763;48.130;11.602;2022-09-03T11:55:32;24.70;97.90
37938;DHT22;23763;48.130;11.602;2022-09-03T11:58:31;24.70;97.70
37938;DHT22;23763;48.130;11.602;2022-09-03T12:01:01;24.90;98.00
37938;DHT22;23763;48.130;11.602;2022-09-03T12:03:41;24.80;98.00
37938;DHT22;23763;48.130;11.602;2022-09-03T12:19:57;24.40;97.80
37938;DHT22;23763;48.130;11.602;2022-09-03T12:21:58;24.40;98.20
37938;DHT22;23763;48.130;11.602;2022-09-03T12:24:26;24.40;98.20
37938;DHT22;23763;48.130;11.602;2022-09-03T12:26:57;24.40;97.70
37938;DHT22;23763;48.130;11.602;2022-09-03T12:29:25;24.30;97.70
37938;DHT22;23763;48.130;11.602;2022-09-03T12:31:52;23.80;98.40
37938;DHT22;23763;48.130;11.602;2022-09-03T12:34:20;23.50;99.00
37938;DHT22;23763;48.130;11.602;2022-09-03T12:36:50;23.60;99.20
37938;DHT22;23763;48.130;11.602;2022-09-03T12:39:22;23.70;99.10
37938;DHT22;23763;48.130;11.602;2022-09-03T12:42:10;23.70;98.90
37938;DHT22;23763;48.130;11.602;2022-09-03T12:44:37;23.80;98.40
37938;DHT22;23763;48.130;11.602;2022-09-03T12:47:12;23.80;98.40
37938;DHT22;23763;48.130;11.602;2022-09-03T12:49:46;23.80;98.20
37938;DHT22;23763;48.130;11.602;2022-09-03T12:55:05;23.80;98.50
37938;DHT22;23763;48.130;11.602;2022-09-03T12:57:55;23.90;98.20
37938;DHT22;23763;48.130;11.602;2022-09-03T13:00:21;23.90;98.00
37938;DHT22;23763;48.130;11.602;2022-09-03T13:03:00;23.80;98.20
37938;DHT22;23763;48.130;11.602;2022-09-03T13:05:34;23.90;98.20
37938;DHT22;23763;48.130;11.602;2022-09-03T13:08:02;23.60;97.90
37938;DHT22;23763;48.130;11.602;2022-09-03T13:10:35;23.80;97.90
37938;DHT22;23763;48.130;11.602;2022-09-03T13:13:27;23.80;97.90
37938;DHT22;23763;48.130;11.602;2022-09-03T13:16:17;24.00;97.90
37938;DHT22;23763;48.130;11.602;2022-09-03T13:30:04;24.20;97.00
37938;DHT22;23763;48.130;11.602;2022-09-03T13:35:43;24.20;97.00
37938;DHT22;23763;48.130;11.602;2022-09-03T13:41:13;24.40;96.20
37938;DHT22;23763;48.130;11.602;2022-09-03T13:46:55;24.30;95.90
37938;DHT22;23763;48.130;11.602;2022-09-03T13:52:29;23.90;96.20
37938;DHT22;23763;48.130;11.602;2022-09-03T13:55:05;23.60;97.60
37938;DHT22;23763;48.130;11.602;2022-09-03T13:57:37;23.60;97.40
37938;DHT22;23763;48.130;11.602;2022-09-03T14:00:10;23.50;97.90
37938;DHT22;23763;48.130;11.602;2022-09-03T14:08:27;23.60;99.00
37938;DHT22;23763;48.130;11.602;2022-09-03T14:20:30;23.30;99.60
37938;DHT22;23763;48.130;11.602;2022-09-03T14:25:55;23.10;99.90
37938;DHT22;23763;48.130;11.602;2022-09-03T14:28:33;23.00;99.90
37938;DHT22;23763;48.130;11.602;2022-09-03T14:36:41;22.60;99.90
37938;DHT22;23763;48.130;11.602;2022-09-03T14:42:20;19.70;99.90
37938;DHT22;23763;48.130;11.602;2022-09-03T14:50:33;16.50;99.90
37938;DHT22;23763;48.130;11.602;2022-09-03T14:53:39;16.20;99.90
37938;DHT22;23763;48.130;11.602;2022-09-03T14:56:31;16.10;99.90
37938;DHT22;23763;48.130;11.602;2022-09-03T15:10:07;16.20;99.90
37938;DHT22;23763;48.130;11.602;2022-09-03T15:12:44;16.20;99.90
37938;DHT22;23763;48.130;11.602;2022-09-03T15:15:29;16.20;99.90
37938;DHT22;23763;48.130;11.602;2022-09-03T15:20:52;16.00;99.90
37938;DHT22;23763;48.130;11.602;2022-09-03T15:36:51;16.00;99.90
37938;DHT22;23763;48.130;11.602;2022-09-03T15:39:31;15.90;99.90
37938;DHT22;23763;48.130;11.602;2022-09-03T15:42:06;15.80;99.90
37938;DHT22;23763;48.130;11.602;2022-09-03T15:44:47;15.80;99.90
37938;DHT22;23763;48.130;11.602;2022-09-03T15:55:40;15.80;99.90
37938;DHT22;23763;48.130;11.602;2022-09-03T16:01:33;15.70;99.90
37938;DHT22;23763;48.130;11.602;2022-09-03T16:23:32;16.80;99.90
37938;DHT22;23763;48.130;11.602;2022-09-03T16:25:56;17.00;99.90
37938;DHT22;23763;48.130;11.602;2022-09-03T16:28:36;17.20;99.90
37938;DHT22;23763;48.130;11.602;2022-09-03T16:38:44;17.40;99.90
37938;DHT22;23763;48.130;11.602;2022-09-03T16:41:33;17.40;99.90
37938;DHT22;23763;48.130;11.602;2022-09-03T16:44:19;17.30;99.90
37938;DHT22;23763;48.130;11.602;2022-09-03T16:47:10;17.40;99.90
37938;DHT22;23763;48.130;11.602;2022-09-03T17:06:38;16.90;99.90
37938;DHT22;23763;48.130;11.602;2022-09-03T17:14:24;16.70;99.90
37938;DHT22;23763;48.130;11.602;2022-09-03T17:17:10;16.90;99.90
37938;DHT22;23763;48.130;11.602;2022-09-03T17:19:59;17.00;99.90
37938;DHT22;23763;48.130;11.602;2022-09-03T17:34:22;17.00;99.90
37938;DHT22;23763;48.130;11.602;2022-09-03T17:36:17;17.00;99.90
37938;DHT22;23763;48.130;11.602;2022-09-03T17:41:48;16.90;99.90
37938;DHT22;23763;48.130;11.602;2022-09-03T17:47:39;16.90;99.90
37938;DHT22;23763;48.130;11.602;2022-09-03T17:50:30;16.90;99.90
37938;DHT22;23763;48.130;11.602;2022-09-03T17:53:22;16.80;99.90
37938;DHT22;23763;48.130;11.602;2022-09-03T17:56:07;16.80;99.90
37938;DHT22;23763;48.130;11.602;2022-09-03T17:58:48;16.60;99.90
37938;DHT22;23763;48.130;11.602;2022-09-03T18:01:20;16.60;99.90
37938;DHT22;23763;48.130;11.602;2022-09-03T18:06:45;16.50;99.90
37938;DHT22;23763;48.130;11.602;2022-09-03T18:11:47;16.40;99.90
37938;DHT22;23763;48.130;11.602;2022-09-03T18:14:19;16.40;99.90
37938;DHT22;23763;48.130;11.602;2022-09-03T18:17:02;16.30;99.90
37938;DHT22;23763;48.130;11.602;2022-09-03T18:19:36;16.30;99.90
37938;DHT22;23763;48.130;11.602;2022-09-03T18:22:28;16.30;99.90
37938;DHT22;23763;48.130;11.602;2022-09-03T18:25:14;16.30;99.90
37938;DHT22;23763;48.130;11.602;2022-09-03T18:28:04;16.30;99.90
37938;DHT22;23763;48.130;11.602;2022-09-03T18:30:49;16.20;99.90
37938;DHT22;23763;48.130;11.602;2022-09-03T18:33:33;16.20;99.90
37938;DHT22;23763;48.130;11.602;2022-09-03T18:36:17;16.20;99.90
37938;DHT22;23763;48.130;11.602;2022-09-03T18:39:14;16.20;99.90
37938;DHT22;23763;48.130;11.602;2022-09-03T18:42:30;16.10;99.90
37938;DHT22;23763;48.130;11.602;2022-09-03T18:57:21;16.00;99.90
37938;DHT22;23763;48.130;11.602;2022-09-03T19:08:41;15.90;99.90
37938;DHT22;23763;48.130;11.602;2022-09-03T19:11:47;15.90;99.90
37938;DHT22;23763;48.130;11.602;2022-09-03T19:14:39;15.90;99.90
37938;DHT22;23763;48.130;11.602;2022-09-03T19:23:59;15.90;99.90
37938;DHT22;23763;48.130;11.602;2022-09-03T19:42:33;15.70;99.90
37938;DHT22;23763;48.130;11.602;2022-09-03T19:45:34;15.70;99.90
37938;DHT22;23763;48.130;11.602;2022-09-03T19:49:02;15.70;99.90
37938;DHT22;23763;48.130;11.602;2022-09-03T19:52:24;15.70;99.90
37938;DHT22;23763;48.130;11.602;2022-09-03T19:55:05;15.60;99.90
37938;DHT22;23763;48.130;11.602;2022-09-03T19:57:54;15.70;99.90
37938;DHT22;23763;48.130;11.602;2022-09-03T20:00:41;15.60;99.90
37938;DHT22;23763;48.130;11.602;2022-09-03T20:03:26;15.50;99.90
37938;DHT22;23763;48.130;11.602;2022-09-03T20:06:11;15.50;99.90
37938;DHT22;23763;48.130;11.602;2022-09-03T20:09:03;15.60;99.90
37938;DHT22;23763;48.130;11.602;2022-09-03T20:11:51;15.60;99.90
37938;DHT22;23763;48.130;11.602;2022-09-03T20:14:18;15.50;99.90
37938;DHT22;23763;48.130;11.602;2022-09-03T20:25:01;15.50;99.90
37938;DHT22;23763;48.130;11.602;2022-09-03T20:27:43;15.50;99.90
37938;DHT22;23763;48.130;11.602;2022-09-03T20:30:15;15.40;99.90
37938;DHT22;23763;48.130;11.602;2022-09-03T20:35:49;15.40;99.90
37938;DHT22;23763;48.130;11.602;2022-09-03T20:38:32;15.40;99.90
37938;DHT22;23763;48.130;11.602;2022-09-03T20:44:15;15.50;99.90
37938;DHT22;23763;48.130;11.602;2022-09-03T20:52:15;15.30;99.90
37938;DHT22;23763;48.130;11.602;2022-09-03T21:00:06;15.20;99.90
37938;DHT22;23763;48.130;11.602;2022-09-03T21:13:56;15.10;99.90
37938;DHT22;23763;48.130;11.602;2022-09-03T21:19:28;15.10;99.90
37938;DHT22;23763;48.130;11.602;2022-09-03T21:24:53;15.10;99.90
37938;DHT22;23763;48.130;11.602;2022-09-03T21:27:28;15.00;99.90
37938;DHT22;23763;48.130;11.602;2022-09-03T21:30:02;15.00;99.90
37938;DHT22;23763;48.130;11.602;2022-09-03T21:38:33;15.00;99.90
37938;DHT22;23763;48.130;11.602;2022-09-03T21:41:25;15.00;99.90
37938;DHT22;23763;48.130;11.602;2022-09-03T21:47:03;15.00;99.90
37938;DHT22;23763;48.130;11.602;2022-09-03T21:50:02;15.00;99.90
37938;DHT22;23763;48.130;11.602;2022-09-03T21:53:19;15.00;99.90
37938;DHT22;23763;48.130;11.602;2022-09-03T21:56:10;15.00;99.90
37938;DHT22;23763;48.130;11.602;2022-09-03T21:59:06;14.90;99.90
37938;DHT22;23763;48.130;11.602;2022-09-03T22:01:53;14.90;99.90
37938;DHT22;23763;48.130;11.602;2022-09-03T22:04:23;14.90;99.90
37938;DHT22;23763;48.130;11.602;2022-09-03T22:07:25;14.90;99.90
37938;DHT22;23763;48.130;11.602;2022-09-03T22:15:16;14.90;99.90
37938;DHT22;23763;48.130;11.602;2022-09-03T22:20:20;14.80;99.90
37938;DHT22;23763;48.130;11.602;2022-09-03T22:25:43;14.80;99.90
37938;DHT22;23763;48.130;11.602;2022-09-03T22:28:21;14.80;99.90
37938;DHT22;23763;48.130;11.602;2022-09-03T22:30:58;14.70;99.90
37938;DHT22;23763;48.130;11.602;2022-09-03T22:33:48;14.90;99.90
37938;DHT22;23763;48.130;11.602;2022-09-03T22:36:20;14.80;99.90
37938;DHT22;23763;48.130;11.602;2022-09-03T22:41:59;14.70;99.90
37938;DHT22;23763;48.130;11.602;2022-09-03T22:55:24;14.60;99.90
37938;DHT22;23763;48.130;11.602;2022-09-03T22:58:07;14.60;99.90
37938;DHT22;23763;48.130;11.602;2022-09-03T23:00:46;14.60;99.90